Time;durP1;ratioP1;P1;durP2;ratioP2;P2;SDS_P1;SDS_P2;PMS_P1;PMS_P2;Temp;Humidity;BMP_temperature;BMP_pressure;BME280_temperature;BME280_humidity;BME280_pressure;Samples;Min_cycle;Max_cycle;Signal;HPM_P1;HPM_P2
2021/09/02 00:01:20;;;;;;;19.40;12.00;;;12.30;99.90;;;;;;5017044;28;20207;-72
2021/09/02 00:03:46;;;;;;;19.70;10.77;;;12.30;99.90;;;;;;5032642;28;20678;-72
2021/09/02 00:06:11;;;;;;;18.43;11.00;;;12.30;99.90;;;;;;5032871;28;20160;-72
2021/09/02 00:08:37;;;;;;;17.33;10.97;;;12.20;99.90;;;;;;5014987;28;20530;-72
2021/09/02 00:11:03;;;;;;;21.27;12.23;;;12.20;99.90;;;;;;4995690;28;20283;-72
2021/09/02 00:13:28;;;;;;;19.93;11.60;;;12.20;99.90;;;;;;5012268;28;20669;-72
2021/09/02 00:15:54;;;;;;;15.70;11.00;;;12.20;99.90;;;;;;5012876;28;20166;-72
2021/09/02 00:18:19;;;;;;;19.33;11.07;;;12.20;99.90;;;;;;5011627;28;20158;-72
2021/09/02 00:20:45;;;;;;;19.47;10.67;;;12.10;99.90;;;;;;5012739;28;20192;-72
2021/09/02 00:23:10;;;;;;;17.10;11.83;;;12.10;99.90;;;;;;4992953;28;20170;-72
2021/09/02 00:25:36;;;;;;;13.63;9.90;;;12.10;99.90;;;;;;4992958;28;20579;-72
2021/09/02 00:28:03;;;;;;;15.20;10.00;;;12.10;99.90;;;;;;4993160;28;20217;-72
2021/09/02 00:30:28;;;;;;;17.53;10.53;;;12.10;99.90;;;;;;5010678;28;20190;-72
2021/09/02 00:32:54;;;;;;;15.20;10.00;;;12.10;99.90;;;;;;5012473;28;20419;-72
2021/09/02 00:35:19;;;;;;;17.67;10.27;;;12.00;99.90;;;;;;5012599;28;20271;-72
2021/09/02 00:37:45;;;;;;;23.20;10.87;;;12.00;99.90;;;;;;5012573;28;20165;-72
2021/09/02 00:40:11;;;;;;;16.90;9.73;;;12.00;99.90;;;;;;5012103;28;20232;-72
2021/09/02 00:42:37;;;;;;;18.80;11.10;;;12.00;99.90;;;;;;5012501;28;20240;-72
2021/09/02 00:45:03;;;;;;;16.80;9.17;;;12.00;99.90;;;;;;5012659;28;20396;-73
2021/09/02 00:47:28;;;;;;;16.10;11.10;;;11.90;99.90;;;;;;5012311;28;20196;-73
2021/09/02 00:49:54;;;;;;;15.97;8.50;;;11.90;99.90;;;;;;5012440;28;20500;-73
2021/09/02 00:52:27;;;;;;;15.70;9.60;;;11.90;99.90;;;;;;5031492;28;20287;-73
2021/09/02 00:54:56;;;;;;;19.53;9.90;;;11.90;99.90;;;;;;5032367;28;20403;-73
2021/09/02 00:57:24;;;;;;;14.40;9.43;;;11.90;99.90;;;;;;5032189;28;20753;-73
2021/09/02 00:59:51;;;;;;;17.40;9.93;;;11.80;99.90;;;;;;5031779;28;20534;-73
2021/09/02 01:02:18;;;;;;;14.50;8.93;;;11.90;99.90;;;;;;5028393;28;20419;-73
2021/09/02 01:04:44;;;;;;;18.67;9.90;;;11.80;99.90;;;;;;5012454;28;20420;-73
2021/09/02 01:07:10;;;;;;;14.90;9.20;;;11.80;99.90;;;;;;5012578;28;20396;-73
2021/09/02 01:09:35;;;;;;;15.90;11.30;;;11.80;99.90;;;;;;5023059;28;20544;-73
2021/09/02 01:12:30;;;;;;;19.03;10.83;;;11.80;99.90;;;;;;5031217;28;20208;-73
2021/09/02 01:14:56;;;;;;;15.47;8.47;;;11.70;99.90;;;;;;5031063;28;20244;-73
2021/09/02 01:17:22;;;;;;;13.40;9.20;;;11.70;99.90;;;;;;5031217;28;20514;-73
2021/09/02 01:19:50;;;;;;;15.90;9.43;;;11.70;99.90;;;;;;5025765;28;20463;-73
2021/09/02 01:22:16;;;;;;;14.13;8.63;;;11.70;99.90;;;;;;5013985;28;20537;-73
2021/09/02 01:24:42;;;;;;;14.50;9.47;;;11.70;99.90;;;;;;5012331;28;20470;-73
2021/09/02 01:27:07;;;;;;;17.07;9.67;;;11.70;99.90;;;;;;5011904;28;20174;-73
2021/09/02 01:29:33;;;;;;;20.63;10.00;;;11.60;99.90;;;;;;5012220;28;20451;-72
2021/09/02 01:31:59;;;;;;;14.40;8.73;;;11.60;99.90;;;;;;5021640;28;20232;-72
2021/09/02 01:34:24;;;;;;;18.27;10.70;;;11.60;99.90;;;;;;5011849;28;20252;-72
2021/09/02 01:36:50;;;;;;;14.63;8.30;;;11.60;99.90;;;;;;5012283;28;20197;-72
2021/09/02 01:39:22;;;;;;;20.23;9.80;;;11.60;99.90;;;;;;5014477;28;20196;-72
2021/09/02 01:41:48;;;;;;;14.10;9.23;;;11.60;99.90;;;;;;5015625;28;20177;-72
2021/09/02 01:44:14;;;;;;;14.93;8.80;;;11.60;99.90;;;;;;5015271;28;20438;-72
2021/09/02 01:46:39;;;;;;;18.20;10.30;;;11.60;99.90;;;;;;5015602;28;20169;-72
2021/09/02 01:49:05;;;;;;;13.87;9.13;;;11.50;99.90;;;;;;5015837;28;20165;-72
2021/09/02 01:51:31;;;;;;;14.97;8.80;;;11.50;99.90;;;;;;5015428;28;20328;-72
2021/09/02 01:53:57;;;;;;;15.83;10.17;;;11.50;99.90;;;;;;5015051;28;20433;-72
2021/09/02 01:56:22;;;;;;;15.10;9.10;;;11.50;99.90;;;;;;5015214;28;20658;-72
2021/09/02 01:58:48;;;;;;;15.03;9.40;;;11.50;99.90;;;;;;5015353;28;20424;-72
2021/09/02 02:01:13;;;;;;;15.77;9.40;;;11.50;99.90;;;;;;5015183;28;20185;-72
2021/09/02 02:03:39;;;;;;;14.10;8.60;;;11.50;99.90;;;;;;5015228;28;20158;-72
2021/09/02 02:06:05;;;;;;;11.77;7.97;;;11.50;99.90;;;;;;5015107;28;20643;-72
2021/09/02 02:08:30;;;;;;;11.87;7.33;;;11.40;99.90;;;;;;5015315;28;20533;-72
2021/09/02 02:10:56;;;;;;;15.90;8.63;;;11.40;99.90;;;;;;5014625;28;20217;-72
2021/09/02 02:13:21;;;;;;;17.80;9.60;;;11.40;99.90;;;;;;5014848;28;20595;-72
2021/09/02 02:15:47;;;;;;;11.83;8.20;;;11.40;99.90;;;;;;5016165;28;20173;-72
2021/09/02 02:18:13;;;;;;;13.37;9.00;;;11.40;99.90;;;;;;5035188;28;20173;-73
2021/09/02 02:20:38;;;;;;;17.30;8.90;;;11.30;99.90;;;;;;5021554;28;20192;-73
2021/09/02 02:23:04;;;;;;;13.23;8.00;;;11.30;99.90;;;;;;4997537;28;20201;-73
2021/09/02 02:25:30;;;;;;;14.63;9.73;;;11.30;99.90;;;;;;5013054;28;20166;-73
2021/09/02 02:27:56;;;;;;;18.97;8.20;;;11.30;99.90;;;;;;5014110;28;20192;-73
2021/09/02 02:30:24;;;;;;;14.83;7.70;;;11.30;99.90;;;;;;5017619;28;20193;-73
2021/09/02 02:32:50;;;;;;;12.60;8.00;;;11.30;99.90;;;;;;5034583;28;20168;-73
2021/09/02 02:35:17;;;;;;;13.07;9.53;;;11.30;99.90;;;;;;5034977;28;20428;-70
2021/09/02 02:37:44;;;;;;;13.70;8.40;;;11.20;99.90;;;;;;5034430;28;20461;-70
2021/09/02 02:40:12;;;;;;;14.30;8.20;;;11.20;99.90;;;;;;5031123;28;20857;-70
2021/09/02 02:42:38;;;;;;;13.73;9.43;;;11.20;99.90;;;;;;5014553;28;20405;-70
2021/09/02 02:45:04;;;;;;;13.97;8.60;;;11.20;99.90;;;;;;5014331;28;20420;-70
2021/09/02 02:47:30;;;;;;;13.30;8.43;;;11.20;99.90;;;;;;5014285;28;20928;-70
2021/09/02 02:49:56;;;;;;;18.00;8.73;;;11.20;99.90;;;;;;5014218;28;20412;-70
2021/09/02 02:52:21;;;;;;;11.90;7.53;;;11.20;99.90;;;;;;5033204;28;20204;-70
2021/09/02 02:54:47;;;;;;;17.67;10.10;;;11.20;99.90;;;;;;5034224;28;20196;-70
2021/09/02 02:57:12;;;;;;;11.20;8.30;;;11.20;99.90;;;;;;5034397;28;20145;-70
2021/09/02 02:59:38;;;;;;;14.77;7.80;;;11.20;99.90;;;;;;5033762;28;20279;-70
2021/09/02 03:02:04;;;;;;;15.20;9.20;;;11.20;99.90;;;;;;5021908;28;20348;-70
2021/09/02 03:04:30;;;;;;;14.50;9.03;;;11.20;99.90;;;;;;5014121;28;20193;-70
2021/09/02 03:06:55;;;;;;;11.40;8.37;;;11.20;99.90;;;;;;5013880;28;20408;-70
2021/09/02 03:09:20;;;;;;;14.97;9.17;;;11.10;99.90;;;;;;5014002;28;20157;-70
2021/09/02 03:11:46;;;;;;;14.60;8.10;;;11.10;99.90;;;;;;5013872;28;20228;-70
2021/09/02 03:14:12;;;;;;;14.30;8.70;;;11.10;99.90;;;;;;5013592;28;20173;-70
2021/09/02 03:16:37;;;;;;;14.57;9.70;;;11.10;99.90;;;;;;5013821;28;20157;-70
2021/09/02 03:19:03;;;;;;;12.33;8.30;;;11.10;99.90;;;;;;5013672;28;20599;-70
2021/09/02 03:21:28;;;;;;;17.90;8.87;;;11.10;99.90;;;;;;5013073;28;20178;-70
2021/09/02 03:23:54;;;;;;;13.93;8.57;;;11.10;99.90;;;;;;5013636;28;20212;-70
2021/09/02 03:26:19;;;;;;;11.03;7.97;;;11.10;99.90;;;;;;5013713;28;20638;-70
2021/09/02 03:28:45;;;;;;;16.17;8.70;;;11.00;99.90;;;;;;5013838;28;20166;-70
2021/09/02 03:31:10;;;;;;;13.57;8.60;;;11.00;99.90;;;;;;5012273;28;20638;-70
2021/09/02 03:33:36;;;;;;;14.63;8.77;;;11.00;99.90;;;;;;5013236;28;20192;-70
2021/09/02 03:36:02;;;;;;;13.13;8.13;;;11.00;99.90;;;;;;5013366;28;20521;-70
2021/09/02 03:38:27;;;;;;;10.70;7.50;;;11.00;99.90;;;;;;5013332;28;20635;-70
2021/09/02 03:40:53;;;;;;;13.40;8.80;;;11.00;99.90;;;;;;5018348;28;20488;-70
2021/09/02 03:43:20;;;;;;;13.97;8.30;;;11.00;99.90;;;;;;5033293;28;20218;-70
2021/09/02 03:45:47;;;;;;;14.43;7.63;;;11.00;99.90;;;;;;5032967;28;20160;-70
2021/09/02 03:48:13;;;;;;;14.77;7.60;;;11.00;99.90;;;;;;5033103;28;20399;-70
2021/09/02 03:50:38;;;;;;;12.93;8.67;;;11.00;99.90;;;;;;5025280;28;20466;-70
2021/09/02 03:53:04;;;;;;;15.00;8.70;;;11.00;99.90;;;;;;5024485;28;20181;-70
2021/09/02 03:55:29;;;;;;;9.80;7.37;;;10.90;99.90;;;;;;5012901;28;20169;-70
2021/09/02 03:57:55;;;;;;;13.60;8.20;;;10.90;99.90;;;;;;5012253;28;20177;-70
2021/09/02 04:00:21;;;;;;;16.00;8.17;;;10.90;99.90;;;;;;5012916;28;20200;-70
2021/09/02 04:02:46;;;;;;;15.23;7.93;;;10.90;99.90;;;;;;5012882;28;20524;-70
2021/09/02 04:05:15;;;;;;;13.70;7.70;;;10.90;99.90;;;;;;5012531;28;20158;-70
2021/09/02 04:07:40;;;;;;;11.93;8.93;;;10.90;99.90;;;;;;5018501;28;20180;-70
2021/09/02 04:10:06;;;;;;;12.60;8.50;;;10.90;99.90;;;;;;5024171;28;20428;-70
2021/09/02 04:12:32;;;;;;;9.43;6.57;;;10.90;99.90;;;;;;5012791;28;20698;-70
2021/09/02 04:14:58;;;;;;;14.47;7.90;;;10.90;99.90;;;;;;5012735;28;20447;-70
2021/09/02 04:17:24;;;;;;;13.57;9.13;;;10.90;99.90;;;;;;5015610;28;20235;-70
2021/09/02 04:19:49;;;;;;;12.67;8.07;;;10.90;99.90;;;;;;5032602;28;20872;-70
2021/09/02 04:22:15;;;;;;;13.87;8.20;;;10.90;99.90;;;;;;5032553;28;20160;-70
2021/09/02 04:24:40;;;;;;;11.20;7.70;;;10.90;99.90;;;;;;5032551;28;20180;-70
2021/09/02 04:27:07;;;;;;;16.80;8.90;;;10.90;99.90;;;;;;5025491;28;20288;-70
2021/09/02 04:29:33;;;;;;;12.10;7.50;;;10.90;99.90;;;;;;5014510;28;20196;-70
2021/09/02 04:31:59;;;;;;;13.20;8.00;;;10.90;99.90;;;;;;5029474;28;20470;-70
2021/09/02 04:34:24;;;;;;;13.50;8.13;;;10.90;99.90;;;;;;5032165;28;20156;-70
2021/09/02 04:36:50;;;;;;;13.57;8.17;;;10.90;99.90;;;;;;5032523;28;20173;-70
2021/09/02 04:39:15;;;;;;;10.53;7.23;;;10.90;99.90;;;;;;5032418;28;20160;-70
2021/09/02 04:41:41;;;;;;;11.60;7.50;;;10.90;99.90;;;;;;5031881;28;20601;-70
2021/09/02 04:44:06;;;;;;;12.77;8.40;;;10.90;99.90;;;;;;5023622;28;20192;-70
2021/09/02 04:46:32;;;;;;;10.23;8.03;;;10.90;99.90;;;;;;5012695;28;20181;-70
2021/09/02 04:48:58;;;;;;;12.97;9.00;;;10.90;99.90;;;;;;5012575;28;20166;-70
2021/09/02 04:51:23;;;;;;;10.23;7.70;;;10.90;99.90;;;;;;5012010;28;20569;-70
2021/09/02 04:53:49;;;;;;;12.20;7.30;;;10.90;99.90;;;;;;5011803;28;20169;-70
2021/09/02 04:56:14;;;;;;;13.20;8.23;;;10.90;99.90;;;;;;5010752;28;20729;-70
2021/09/02 04:58:40;;;;;;;12.90;7.83;;;10.90;99.90;;;;;;5007902;28;20663;-70
2021/09/02 05:01:06;;;;;;;12.67;7.60;;;10.90;99.90;;;;;;5009726;28;20260;-70
2021/09/02 05:03:32;;;;;;;12.50;8.57;;;10.90;99.90;;;;;;5009244;28;20255;-70
2021/09/02 05:05:57;;;;;;;18.53;8.70;;;10.90;99.90;;;;;;5019877;28;20263;-70
2021/09/02 05:08:23;;;;;;;10.73;7.27;;;10.90;99.90;;;;;;5020357;28;20440;-70
2021/09/02 05:10:50;;;;;;;15.70;8.60;;;10.90;99.90;;;;;;5020067;28;20201;-70
2021/09/02 05:13:15;;;;;;;16.33;9.80;;;10.90;99.90;;;;;;5016176;28;20204;-70
2021/09/02 05:15:41;;;;;;;10.53;7.20;;;11.00;99.90;;;;;;5014178;28;20459;-70
2021/09/02 05:18:07;;;;;;;16.30;8.60;;;10.90;99.90;;;;;;5012122;28;20178;-70
2021/09/02 05:20:32;;;;;;;16.70;9.30;;;11.00;99.90;;;;;;5011960;28;20197;-70
2021/09/02 05:22:58;;;;;;;16.73;8.83;;;11.00;99.90;;;;;;5014536;28;20284;-70
2021/09/02 05:25:24;;;;;;;11.47;7.37;;;11.00;99.90;;;;;;5005993;28;20185;-70
2021/09/02 05:27:49;;;;;;;12.00;8.37;;;11.00;99.90;;;;;;5022762;28;20184;-70
2021/09/02 05:30:16;;;;;;;15.47;8.50;;;11.10;99.90;;;;;;5025343;28;20436;-70
2021/09/02 05:32:41;;;;;;;13.27;8.97;;;11.10;99.90;;;;;;5013860;28;20201;-70
2021/09/02 05:35:08;;;;;;;18.43;8.70;;;11.10;99.90;;;;;;5014303;28;20416;-70
2021/09/02 05:37:34;;;;;;;11.80;7.80;;;11.10;99.90;;;;;;5010162;28;20174;-70
2021/09/02 05:40:00;;;;;;;17.50;9.10;;;11.20;99.90;;;;;;5012014;28;20425;-70
2021/09/02 05:42:25;;;;;;;15.67;10.13;;;11.20;99.90;;;;;;5026370;28;20180;-70
2021/09/02 05:44:51;;;;;;;17.13;9.37;;;11.20;99.90;;;;;;5035273;28;20645;-70
2021/09/02 05:47:16;;;;;;;13.80;8.40;;;11.30;99.90;;;;;;5027143;28;20279;-70
2021/09/02 05:49:42;;;;;;;11.80;8.13;;;11.30;99.90;;;;;;5014602;28;20177;-70
2021/09/02 05:52:08;;;;;;;14.57;9.50;;;11.30;99.90;;;;;;5007729;28;20203;-70
2021/09/02 05:54:33;;;;;;;15.23;9.50;;;11.40;99.90;;;;;;5010063;28;20227;-71
2021/09/02 05:56:59;;;;;;;15.57;9.17;;;11.40;99.90;;;;;;5006573;28;20948;-71
2021/09/02 05:59:25;;;;;;;13.93;8.53;;;11.50;99.90;;;;;;5014017;28;20292;-71
2021/09/02 06:01:50;;;;;;;15.30;9.17;;;11.60;99.90;;;;;;5014789;28;20177;-71
2021/09/02 06:04:16;;;;;;;15.53;8.13;;;11.60;99.90;;;;;;5014577;28;20215;-71
2021/09/02 06:06:41;;;;;;;12.27;8.40;;;11.60;99.90;;;;;;5019124;28;20557;-71
2021/09/02 06:09:07;;;;;;;13.40;8.17;;;11.70;99.90;;;;;;5019722;28;20177;-71
2021/09/02 06:11:34;;;;;;;12.43;8.47;;;11.70;99.90;;;;;;5017046;28;20205;-71
2021/09/02 06:14:00;;;;;;;13.50;8.90;;;11.80;99.90;;;;;;5012957;28;20220;-71
2021/09/02 06:16:25;;;;;;;12.33;8.53;;;11.80;99.90;;;;;;5014374;28;20448;-71
2021/09/02 06:18:51;;;;;;;19.00;9.17;;;11.90;99.90;;;;;;5012827;28;20177;-71
2021/09/02 06:21:16;;;;;;;12.93;8.57;;;12.00;99.90;;;;;;5014252;28;20186;-71
2021/09/02 06:23:42;;;;;;;13.17;9.60;;;12.00;99.90;;;;;;5008724;28;20201;-71
2021/09/02 06:26:08;;;;;;;14.80;10.60;;;12.00;99.90;;;;;;5007652;28;20185;-71
2021/09/02 06:28:33;;;;;;;15.40;8.73;;;12.10;99.90;;;;;;5021147;28;20638;-71
2021/09/02 06:30:59;;;;;;;15.80;9.17;;;12.10;99.90;;;;;;5018269;28;20208;-71
2021/09/02 06:33:25;;;;;;;17.33;9.70;;;12.10;99.90;;;;;;5001107;28;20178;-71
2021/09/02 06:35:51;;;;;;;17.27;11.53;;;12.20;99.90;;;;;;5010499;28;20304;-71
2021/09/02 06:38:16;;;;;;;17.40;10.40;;;12.30;99.90;;;;;;5004050;28;20443;-71
2021/09/02 06:40:42;;;;;;;16.37;10.57;;;12.40;99.90;;;;;;5011168;28;20175;-71
2021/09/02 06:43:08;;;;;;;22.03;10.07;;;12.50;99.90;;;;;;5013635;28;20192;-71
2021/09/02 06:45:33;;;;;;;19.50;10.33;;;12.70;99.90;;;;;;5014334;28;20185;-71
2021/09/02 06:47:59;;;;;;;13.93;10.20;;;12.80;99.90;;;;;;5013804;28;20177;-71
2021/09/02 06:50:25;;;;;;;21.83;12.30;;;12.90;99.90;;;;;;5014745;28;20647;-71
2021/09/02 06:52:51;;;;;;;16.07;10.57;;;13.10;99.90;;;;;;5002559;28;20260;-71
2021/09/02 06:55:16;;;;;;;17.30;9.97;;;13.10;99.90;;;;;;5009813;28;20436;-71
2021/09/02 06:57:42;;;;;;;22.30;10.90;;;13.20;99.90;;;;;;5010500;28;20178;-71
2021/09/02 07:00:09;;;;;;;14.67;9.50;;;13.30;99.90;;;;;;5010917;28;20205;-71
2021/09/02 07:02:35;;;;;;;24.20;11.73;;;13.40;99.90;;;;;;5011509;28;20186;-71
2021/09/02 07:05:02;;;;;;;16.47;9.10;;;13.50;99.90;;;;;;4994210;28;20768;-71
2021/09/02 07:07:27;;;;;;;17.67;9.63;;;13.50;99.90;;;;;;4994357;28;20629;-71
2021/09/02 07:09:53;;;;;;;16.63;9.97;;;13.60;99.90;;;;;;4993956;28;20414;-71
2021/09/02 07:12:19;;;;;;;20.33;10.33;;;13.70;99.90;;;;;;5024732;28;20682;-71
2021/09/02 07:14:44;;;;;;;11.20;9.17;;;13.80;99.90;;;;;;5009754;28;20660;-71
2021/09/02 07:17:10;;;;;;;24.70;10.33;;;13.80;99.90;;;;;;5002461;28;20426;-71
2021/09/02 07:19:36;;;;;;;17.20;11.80;;;14.00;99.90;;;;;;5013677;28;20186;-71
2021/09/02 07:22:01;;;;;;;14.23;9.60;;;14.10;99.90;;;;;;5013883;28;20625;-71
2021/09/02 07:24:27;;;;;;;14.67;9.87;;;14.20;99.90;;;;;;5013199;28;20164;-71
2021/09/02 07:26:52;;;;;;;17.23;10.73;;;14.30;99.90;;;;;;5013456;28;20280;-71
2021/09/02 07:29:18;;;;;;;18.73;11.33;;;14.40;99.90;;;;;;4994786;28;20181;-71
2021/09/02 07:31:44;;;;;;;16.60;12.83;;;14.60;99.90;;;;;;5002105;28;20212;-71
2021/09/02 07:34:10;;;;;;;14.60;10.60;;;14.70;99.90;;;;;;5012403;28;20225;-71
2021/09/02 07:36:36;;;;;;;16.17;8.67;;;14.90;99.90;;;;;;5011440;28;20904;-71
2021/09/02 07:39:03;;;;;;;14.33;8.73;;;15.00;99.90;;;;;;4998705;28;20193;-71
2021/09/02 07:41:29;;;;;;;11.83;8.27;;;15.30;99.90;;;;;;4992326;28;20773;-71
2021/09/02 07:43:55;;;;;;;13.33;9.30;;;15.50;99.90;;;;;;4992560;28;20420;-71
2021/09/02 07:46:20;;;;;;;17.93;10.17;;;15.70;99.90;;;;;;5004178;28;20169;-71
2021/09/02 07:48:46;;;;;;;13.90;9.57;;;15.90;99.90;;;;;;5011092;28;20202;-71
2021/09/02 07:51:14;;;;;;;15.60;9.57;;;16.10;99.90;;;;;;5010653;28;20300;-71
2021/09/02 07:53:40;;;;;;;15.90;9.50;;;16.20;99.90;;;;;;5011073;28;20416;-71
2021/09/02 07:56:05;;;;;;;15.53;8.67;;;16.40;99.90;;;;;;5011990;28;20411;-71
2021/09/02 07:58:31;;;;;;;12.10;8.90;;;16.50;99.90;;;;;;5015433;28;20479;-71
2021/09/02 08:00:56;;;;;;;11.33;8.00;;;16.70;99.90;;;;;;5011632;28;20196;-71
2021/09/02 08:03:22;;;;;;;12.30;8.27;;;16.80;99.90;;;;;;5011385;28;20267;-71
2021/09/02 08:05:48;;;;;;;13.97;7.90;;;16.90;99.90;;;;;;5009389;28;20184;-71
2021/09/02 08:08:16;;;;;;;13.30;7.30;;;17.00;99.90;;;;;;5015622;28;20277;-71
2021/09/02 08:10:43;;;;;;;11.03;7.33;;;17.10;99.90;;;;;;5010505;28;20643;-71
2021/09/02 08:13:08;;;;;;;13.37;8.30;;;17.10;99.90;;;;;;5010731;28;20452;-71
2021/09/02 08:15:35;;;;;;;11.67;6.47;;;17.20;99.90;;;;;;5022822;28;20416;-71
2021/09/02 08:18:01;;;;;;;13.10;7.90;;;17.30;99.90;;;;;;5031853;28;20169;-71
2021/09/02 08:20:27;;;;;;;8.60;7.20;;;17.30;99.90;;;;;;5032036;28;20399;-71
2021/09/02 08:22:53;;;;;;;12.60;7.47;;;17.40;99.90;;;;;;5015007;28;20185;-70
2021/09/02 08:25:19;;;;;;;11.33;7.23;;;17.40;99.90;;;;;;5012213;28;20868;-71
2021/09/02 08:27:45;;;;;;;10.57;7.00;;;17.50;99.90;;;;;;5012498;28;20188;-70
2021/09/02 08:30:14;;;;;;;8.30;6.50;;;17.60;99.90;;;;;;5013070;28;20438;-71
2021/09/02 08:32:46;;;;;;;8.47;6.80;;;17.70;99.90;;;;;;5013739;28;20502;-70
2021/09/02 08:35:13;;;;;;;9.87;6.50;;;17.70;99.90;;;;;;4998626;28;20793;-70
2021/09/02 08:37:38;;;;;;;10.47;7.60;;;17.80;99.90;;;;;;5013510;28;20405;-70
2021/09/02 08:40:05;;;;;;;10.77;6.90;;;17.90;99.90;;;;;;5008551;28;20504;-71
2021/09/02 08:42:31;;;;;;;12.83;7.30;;;17.90;99.90;;;;;;5005093;28;20220;-70
2021/09/02 08:44:56;;;;;;;8.67;6.87;;;18.00;99.90;;;;;;5029617;28;20530;-71
2021/09/02 08:47:23;;;;;;;8.70;6.40;;;18.10;99.90;;;;;;5031014;28;20266;-70
2021/09/02 08:49:48;;;;;;;7.93;7.10;;;18.10;99.90;;;;;;5036553;28;20303;-70
2021/09/02 08:52:14;;;;;;;11.13;7.00;;;18.20;99.90;;;;;;5029558;28;20558;-70
2021/09/02 08:54:40;;;;;;;9.60;6.30;;;18.20;99.90;;;;;;5030214;28;20243;-70
2021/09/02 08:57:06;;;;;;;14.70;7.10;;;18.20;99.90;;;;;;5021094;28;20269;-70
2021/09/02 08:59:31;;;;;;;9.77;7.27;;;18.30;99.90;;;;;;5007219;28;20204;-70
2021/09/02 09:01:57;;;;;;;7.43;5.50;;;18.40;99.90;;;;;;5015326;28;20216;-70
2021/09/02 09:04:32;;;;;;;9.53;6.33;;;18.40;99.90;;;;;;5015160;28;20267;-70
2021/09/02 09:06:57;;;;;;;10.27;5.70;;;18.40;99.90;;;;;;5015690;28;20180;-70
2021/09/02 09:09:23;;;;;;;7.33;5.90;;;18.50;99.90;;;;;;5016096;28;20407;-70
2021/09/02 09:11:49;;;;;;;10.53;6.87;;;18.60;99.90;;;;;;5016452;28;20291;-70
2021/09/02 09:14:18;;;;;;;9.47;6.20;;;18.70;99.90;;;;;;5014305;28;20198;-70
2021/09/02 09:19:49;;;;;;;8.00;6.77;;;18.80;99.90;;;;;;5089833;27;20527;-70
2021/09/02 09:22:17;;;;;;;8.73;6.07;;;18.90;99.90;;;;;;5090480;28;20393;-70
2021/09/02 09:27:39;;;;;;;6.87;5.63;;;18.90;99.90;;;;;;5062039;28;20940;-76
2021/09/02 09:35:28;;;;;;;7.53;5.63;;;19.50;99.90;;;;;;5106850;27;20594;-71
2021/09/02 09:38:15;;;;;;;8.00;6.67;;;19.70;99.90;;;;;;5098895;28;20421;-71
2021/09/02 09:40:45;;;;;;;8.47;5.60;;;19.80;99.90;;;;;;5102696;28;20423;-71
2021/09/02 09:53:44;;;;;;;6.80;5.70;;;20.10;99.90;;;;;;5068478;28;20520;-71
2021/09/02 09:56:11;;;;;;;8.67;5.07;;;20.30;99.90;;;;;;5045003;28;20411;-71
2021/09/02 09:58:36;;;;;;;12.27;5.60;;;20.30;99.90;;;;;;5032203;28;20447;-71
2021/09/02 10:01:04;;;;;;;7.30;5.57;;;20.40;99.90;;;;;;5045880;28;20414;-71
2021/09/02 10:03:32;;;;;;;6.53;5.60;;;20.40;99.90;;;;;;5049248;28;20625;-71
2021/09/02 10:06:07;;;;;;;10.33;6.10;;;20.50;99.90;;;;;;5041748;28;20393;-71
2021/09/02 10:08:35;;;;;;;8.17;5.97;;;20.60;99.90;;;;;;5034567;28;20507;-71
2021/09/02 10:11:03;;;;;;;8.80;5.60;;;20.60;99.90;;;;;;5039277;28;20467;-71
2021/09/02 10:13:30;;;;;;;8.00;5.43;;;20.60;99.90;;;;;;5040444;28;20466;-71
2021/09/02 10:15:56;;;;;;;7.50;4.73;;;20.70;99.90;;;;;;5026195;28;20413;-71
2021/09/02 10:18:21;;;;;;;7.73;5.57;;;20.70;99.90;;;;;;5025669;28;20399;-71
2021/09/02 10:20:48;;;;;;;10.23;5.40;;;20.70;99.90;;;;;;5027233;28;20423;-71
2021/09/02 10:23:22;;;;;;;8.20;5.63;;;20.70;99.90;;;;;;5033395;28;20189;-71
2021/09/02 10:25:47;;;;;;;9.30;5.40;;;20.80;99.90;;;;;;5038616;28;20415;-71
2021/09/02 10:28:17;;;;;;;6.67;5.27;;;20.90;99.90;;;;;;5040295;28;20432;-71
2021/09/02 10:38:54;;;;;;;9.90;5.40;;;21.10;99.90;;;;;;5056273;28;20523;-70
2021/09/02 10:44:15;;;;;;;7.00;5.03;;;21.10;99.90;;;;;;5055094;28;20536;-71
2021/09/02 10:46:44;;;;;;;7.20;5.30;;;20.90;99.90;;;;;;5044344;28;20425;-71
2021/09/02 10:49:35;;;;;;;9.93;5.77;;;21.00;99.90;;;;;;5050055;28;20935;-71
2021/09/02 10:52:04;;;;;;;6.33;5.47;;;21.00;99.90;;;;;;5048425;28;20989;-71
2021/09/02 10:54:36;;;;;;;9.37;5.00;;;21.10;99.90;;;;;;5044198;28;20857;-71
2021/09/02 11:04:59;;;;;;;8.23;4.70;;;21.10;99.90;;;;;;5149939;27;20523;-70
2021/09/02 11:10:19;;;;;;;10.40;6.53;;;21.20;99.90;;;;;;5068695;28;20514;-71
2021/09/02 11:12:46;;;;;;;6.70;5.50;;;21.40;99.90;;;;;;5055542;28;20471;-71
2021/09/02 11:15:20;;;;;;;5.43;4.63;;;21.40;99.90;;;;;;5053852;28;20417;-71
2021/09/02 11:17:51;;;;;;;7.43;5.20;;;21.40;99.90;;;;;;5051209;28;20791;-71
2021/09/02 11:20:19;;;;;;;9.83;6.03;;;21.50;99.90;;;;;;5049981;28;20437;-71
2021/09/02 11:22:45;;;;;;;7.97;5.23;;;21.50;99.90;;;;;;5062172;28;20435;-71
2021/09/02 11:25:11;;;;;;;6.63;5.20;;;21.50;99.90;;;;;;5067792;28;20755;-71
2021/09/02 11:27:37;;;;;;;7.50;4.30;;;21.40;99.90;;;;;;5064024;28;20169;-71
2021/09/02 11:30:25;;;;;;;5.70;5.00;;;21.40;99.90;;;;;;5063413;28;20451;-71
2021/09/02 11:32:54;;;;;;;4.97;4.50;;;21.40;99.90;;;;;;5059001;28;20200;-71
2021/09/02 11:35:20;;;;;;;7.30;5.30;;;21.30;99.90;;;;;;5065559;28;20447;-71
2021/09/02 11:37:46;;;;;;;7.37;5.00;;;21.30;99.90;;;;;;5057452;28;20425;-71
2021/09/02 11:43:13;;;;;;;6.17;5.40;;;21.30;99.90;;;;;;5099765;27;21070;-70
2021/09/02 11:45:48;;;;;;;7.60;5.90;;;21.30;99.90;;;;;;5082482;28;20441;-70
2021/09/02 11:48:14;;;;;;;7.67;5.00;;;21.40;99.90;;;;;;5078941;28;20422;-71
2021/09/02 11:50:39;;;;;;;5.80;4.70;;;21.40;99.90;;;;;;5083202;28;20943;-71
2021/09/02 11:53:05;;;;;;;5.97;5.03;;;21.50;99.90;;;;;;5085484;28;20681;-71
2021/09/02 11:55:33;;;;;;;6.03;4.90;;;21.50;99.90;;;;;;5079030;28;20178;-71
2021/09/02 11:58:01;;;;;;;6.27;4.47;;;21.60;99.90;;;;;;5078382;28;20206;-71
2021/09/02 12:00:28;;;;;;;6.00;4.00;;;21.70;99.90;;;;;;5081999;28;20534;-71
2021/09/02 12:02:56;;;;;;;9.00;5.43;;;21.60;99.90;;;;;;5068804;28;20456;-71
2021/09/02 12:05:26;;;;;;;6.10;4.37;;;21.70;99.90;;;;;;5073751;28;20409;-71
2021/09/02 12:07:56;;;;;;;7.93;3.90;;;21.70;99.90;;;;;;5074592;28;20428;-71
2021/09/02 12:10:23;;;;;;;7.00;4.50;;;21.60;99.90;;;;;;5082936;28;20956;-71
2021/09/02 12:12:49;;;;;;;8.43;4.63;;;21.60;99.90;;;;;;5085801;28;20424;-71
2021/09/02 12:15:30;;;;;;;7.30;4.70;;;21.50;99.90;;;;;;5090685;28;20434;-70
2021/09/02 12:18:05;;;;;;;6.27;4.77;;;21.60;99.90;;;;;;5088185;28;20411;-70
2021/09/02 12:20:31;;;;;;;7.77;5.50;;;21.60;99.90;;;;;;5086852;28;20415;-70
2021/09/02 12:22:57;;;;;;;4.70;4.20;;;21.70;99.90;;;;;;5081812;28;20464;-70
2021/09/02 12:25:22;;;;;;;4.90;4.27;;;21.80;99.90;;;;;;5077181;28;20424;-70
2021/09/02 12:30:43;;;;;;;6.00;4.77;;;21.90;99.90;;;;;;5065024;27;20993;-71
2021/09/02 12:33:12;;;;;;;4.40;4.00;;;22.10;99.90;;;;;;5043219;28;20433;-71
2021/09/02 12:35:40;;;;;;;5.40;4.80;;;22.10;99.90;;;;;;5044780;28;20425;-71
2021/09/02 12:38:06;;;;;;;5.07;4.27;;;22.20;99.90;;;;;;5053130;28;20867;-71
2021/09/02 12:40:31;;;;;;;4.67;3.70;;;22.30;99.90;;;;;;5050844;28;20536;-71
2021/09/02 12:43:18;;;;;;;4.70;4.23;;;22.40;99.90;;;;;;5037020;28;20186;-71
2021/09/02 12:45:59;;;;;;;4.97;4.47;;;22.30;99.90;;;;;;5059237;28;20573;-71
2021/09/02 12:48:25;;;;;;;9.63;4.90;;;22.30;99.90;;;;;;5049978;28;20557;-71
2021/09/02 12:50:51;;;;;;;7.00;4.77;;;22.30;99.90;;;;;;5044955;28;20858;-71
2021/09/02 12:53:17;;;;;;;9.70;4.67;;;22.20;99.90;;;;;;5042259;28;20182;-71
2021/09/02 12:55:43;;;;;;;4.83;3.77;;;22.00;99.90;;;;;;5046209;28;20776;-71
2021/09/02 12:58:11;;;;;;;8.30;5.03;;;21.90;99.90;;;;;;5052007;28;20182;-71
2021/09/02 13:00:40;;;;;;;5.50;4.20;;;21.80;99.90;;;;;;5026722;28;20188;-71
2021/09/02 13:03:09;;;;;;;5.30;4.73;;;21.70;99.90;;;;;;5032987;28;20448;-71
2021/09/02 13:05:35;;;;;;;5.90;4.70;;;21.70;99.90;;;;;;5028375;28;20429;-71
2021/09/02 13:08:02;;;;;;;4.83;4.33;;;21.70;99.90;;;;;;5039749;28;20422;-70
2021/09/02 13:13:10;;;;;;;5.93;5.17;;;21.60;99.90;;;;;;5095911;27;20560;-71
2021/09/02 13:15:36;;;;;;;5.53;4.87;;;21.70;99.90;;;;;;5083609;28;20750;-71
2021/09/02 13:18:02;;;;;;;6.97;5.00;;;21.60;99.90;;;;;;5085866;28;20524;-71
2021/09/02 13:20:28;;;;;;;7.37;5.40;;;21.40;99.90;;;;;;5087040;28;20177;-71
2021/09/02 13:22:55;;;;;;;9.13;5.37;;;21.30;99.90;;;;;;5076642;28;20248;-71
2021/09/02 13:25:21;;;;;;;5.77;5.17;;;21.20;99.90;;;;;;5083691;28;20174;-71
2021/09/02 13:27:47;;;;;;;8.10;6.03;;;21.00;99.90;;;;;;5088927;28;20407;-71